KCPR/CPR METAR and TAF weather

Enter ICAO airport designator
Station Type Date Time Source
KCPR METAR 2021/01/27 11:53 UTC NOAA

KCPR 271153Z AUTO 22019KT 10SM CLR M08/M12 A2991 RMK AO2 PK WND 22027/1109 SLP191 T10831122 11078 21111 51008


Station Type Date Time Source
KCPR Decoded METAR 2021/01/27 11:53 UTC NOAA

NATRONA COUNTY INTERNATIONAL AIRPORT , WY, United States (KCPR) 42-54N 106-28W 1621M
Jan 27, 2021 - 06:53 AM EST / 2021.01.27 1153 UTC
Wind: from the SW (220 degrees) at 22 MPH (19 KT):0
Visibility: 10 mile(s):0
Sky conditions: clear
Temperature: 17.1 F (-8.3 C)
Windchill: 0 F (-18 C):1
Dew Point: 10.0 F (-12.2 C)
Relative Humidity: 73%
Pressure (altimeter): 29.91 in. Hg (1012 hPa)
Pressure tendency: 0.02 inches (0.8 hPa) higher than three hours ago
ob: KCPR 271153Z AUTO 22019KT 10SM CLR M08/M12 A2991 RMK AO2 PK WND 22027/1109 SLP191 T10831122 11078 21111 51008
cycle: 12

Station Type Date Time Source
KCPR TAF 2021/01/27 12:42 UTC NOAA

TAF KCPR 271140Z 2712/2812 24016KT P6SM SCT080
FM271400 22017G24KT P6SM SKC
FM271700 22025G35KT 6SM BLSN SKC

Example: see airport list